createdAt,value
2018-02-01T00:01:41.821Z,37.37
2018-02-01T00:04:09.407Z,35.03
2018-02-01T00:06:36.958Z,32.67
2018-02-01T00:09:04.800Z,35.03
2018-02-01T00:11:32.391Z,36.87
2018-02-01T00:14:00.143Z,37.70
2018-02-01T00:16:27.747Z,36.90
2018-02-01T00:18:55.324Z,40.37
2018-02-01T00:21:22.902Z,45.83
2018-02-01T00:23:50.503Z,40.40
2018-02-01T00:26:18.066Z,59.43
2018-02-01T00:28:45.636Z,48.43
2018-02-01T00:31:13.358Z,45.90
2018-02-01T00:33:41.017Z,54.53
2018-02-01T00:36:08.689Z,49.23
2018-02-01T00:38:36.326Z,49.60
2018-02-01T00:41:03.908Z,42.27
2018-02-01T00:43:31.705Z,43.27
2018-02-01T00:45:59.322Z,38.57
2018-02-01T00:48:26.901Z,42.50
2018-02-01T00:50:54.650Z,31.50
2018-02-01T00:53:22.279Z,33.30
2018-02-01T00:55:49.841Z,40.10
2018-02-01T00:58:17.411Z,51.50
2018-02-01T01:00:45.028Z,39.77
2018-02-01T01:03:12.774Z,39.50
2018-02-01T01:05:40.343Z,43.17
2018-02-01T01:08:08.064Z,38.17
2018-02-01T01:10:35.659Z,40.13
2018-02-01T01:13:03.407Z,34.90
2018-02-01T01:15:30.991Z,50.50
2018-02-01T01:17:58.548Z,35.23
2018-02-01T01:20:26.128Z,49.20
2018-02-01T01:22:53.720Z,44.10
2018-02-01T01:25:21.491Z,47.80
2018-02-01T01:27:49.174Z,42.23
2018-02-01T01:30:16.792Z,56.07
2018-02-01T01:32:44.359Z,43.73
2018-02-01T01:35:12.164Z,49.83
2018-02-01T01:37:39.772Z,48.57
2018-02-01T01:40:07.339Z,44.93
2018-02-01T01:42:34.915Z,37.10
2018-02-01T01:45:02.598Z,49.03
2018-02-01T01:47:30.164Z,45.00
2018-02-01T01:49:57.735Z,47.07
2018-02-01T01:52:25.337Z,62.30
2018-02-01T01:54:52.889Z,61.10
2018-02-01T01:57:20.454Z,67.27
2018-02-01T01:59:48.059Z,42.03
2018-02-01T02:02:15.623Z,51.33
2018-02-01T02:04:43.307Z,50.43
2018-02-01T02:07:10.907Z,56.43
2018-02-01T02:09:38.467Z,59.80
2018-02-01T02:12:06.083Z,42.33
2018-02-01T02:14:33.682Z,48.93
2018-02-01T02:17:01.236Z,59.40
2018-02-01T02:19:28.814Z,48.47
2018-02-01T02:21:56.531Z,46.37
2018-02-01T02:24:24.125Z,45.93
2018-02-01T02:26:51.833Z,46.53
2018-02-01T02:29:19.450Z,58.80
2018-02-01T02:31:47.972Z,39.53
2018-02-01T02:34:15.542Z,44.90
2018-02-01T02:36:43.307Z,39.27
2018-02-01T02:39:10.868Z,52.40
2018-02-01T02:41:38.471Z,54.63
2018-02-01T02:44:06.093Z,46.23
2018-02-01T02:46:33.671Z,55.87
2018-02-01T02:49:01.245Z,46.90
2018-02-01T02:51:29.080Z,43.43
2018-02-01T02:53:56.642Z,47.70
2018-02-01T02:56:24.217Z,57.63
2018-02-01T02:58:51.821Z,43.40
2018-02-01T03:01:19.403Z,55.73
2018-02-01T03:03:46.968Z,47.90
2018-02-01T03:06:14.656Z,43.73
2018-02-01T03:08:42.320Z,42.63
2018-02-01T03:11:09.967Z,52.97
2018-02-01T03:13:37.569Z,49.60
2018-02-01T03:16:05.134Z,57.00
2018-02-01T03:18:32.686Z,40.30
2018-02-01T03:21:00.283Z,43.90
2018-02-01T03:23:27.886Z,47.50
2018-02-01T03:25:55.440Z,44.23
2018-02-01T03:28:23.039Z,36.33
2018-02-01T03:30:50.642Z,44.40
2018-02-01T03:33:18.228Z,45.23
2018-02-01T03:35:45.825Z,48.10
2018-02-01T03:38:13.432Z,50.33
2018-02-01T03:40:41.111Z,55.87
2018-02-01T03:43:08.760Z,49.53
2018-02-01T03:45:36.332Z,39.40
2018-02-01T03:48:03.919Z,39.80
2018-02-01T03:50:31.513Z,41.80
2018-02-01T03:52:59.087Z,44.27
2018-02-01T03:55:26.685Z,47.30
2018-02-01T03:57:54.300Z,54.87
2018-02-01T04:00:21.983Z,63.97
2018-02-01T04:02:49.634Z,76.57
2018-02-01T04:05:17.229Z,74.40
2018-02-01T04:07:44.985Z,80.67
2018-02-01T04:10:12.686Z,105.67
2018-02-01T04:12:40.310Z,97.50
2018-02-01T04:15:07.904Z,102.07
2018-02-01T04:17:35.472Z,100.63
2018-02-01T04:20:03.086Z,105.43
2018-02-01T04:22:30.730Z,66.40
2018-02-01T04:24:58.580Z,54.40
2018-02-01T04:27:26.261Z,61.63
2018-02-01T04:29:53.819Z,69.80
2018-02-01T04:32:21.386Z,50.40
2018-02-01T04:34:48.995Z,39.17
2018-02-01T04:37:16.701Z,48.87
2018-02-01T04:39:44.266Z,59.67
2018-02-01T04:42:11.871Z,68.90
2018-02-01T04:44:39.472Z,55.67
2018-02-01T04:47:07.050Z,78.30
2018-02-01T04:49:34.661Z,54.70
2018-02-01T04:52:02.258Z,60.17
2018-02-01T04:54:29.866Z,63.87
2018-02-01T04:56:57.482Z,74.53
2018-02-01T04:59:25.282Z,58.90
2018-02-01T05:01:52.849Z,68.63
2018-02-01T05:04:20.451Z,70.90
2018-02-01T05:06:48.043Z,61.37
2018-02-01T05:09:15.707Z,96.03
2018-02-01T05:11:43.334Z,81.67
2018-02-01T05:14:10.921Z,71.53
2018-02-01T05:16:38.508Z,50.10
2018-02-01T05:19:06.129Z,48.47
2018-02-01T05:21:33.694Z,56.37
2018-02-01T05:24:01.264Z,74.97
2018-02-01T05:26:28.871Z,76.40
2018-02-01T05:28:56.448Z,64.30
2018-02-01T05:31:24.018Z,56.50
2018-02-01T05:33:51.637Z,51.90
2018-02-01T05:36:19.395Z,52.97
2018-02-01T05:38:46.969Z,57.90
2018-02-01T05:41:14.626Z,62.07
2018-02-01T05:43:42.164Z,46.77
2018-02-01T05:46:09.704Z,73.60
2018-02-01T05:48:37.312Z,49.00
2018-02-01T05:51:04.907Z,49.57
2018-02-01T05:53:32.607Z,53.60
2018-02-01T05:56:00.220Z,63.63
2018-02-01T05:58:27.933Z,81.93
2018-02-01T06:00:55.600Z,52.70
2018-02-01T06:03:23.269Z,53.70
2018-02-01T06:05:50.886Z,51.83
2018-02-01T06:08:18.466Z,52.67
2018-02-01T06:10:46.072Z,48.40
2018-02-01T06:13:13.700Z,63.57
2018-02-01T06:15:41.266Z,38.30
2018-02-01T06:18:08.865Z,64.77
2018-02-01T06:20:36.431Z,46.67
2018-02-01T06:23:04.168Z,45.60
2018-02-01T06:25:31.766Z,69.53
2018-02-01T06:27:59.554Z,64.57
2018-02-01T06:30:27.336Z,74.87
2018-02-01T06:32:54.926Z,31.17
2018-02-01T06:35:22.490Z,37.50
2018-02-01T06:37:50.425Z,43.93
2018-02-01T06:40:18.039Z,48.17
2018-02-01T06:42:45.621Z,52.00
2018-02-01T06:45:13.183Z,74.60
2018-02-01T06:47:40.800Z,46.57
2018-02-01T06:50:08.367Z,49.87
2018-02-01T06:52:35.930Z,68.00
2018-02-01T06:55:03.558Z,64.67
2018-02-01T06:57:31.123Z,84.77
2018-02-01T06:59:58.872Z,56.03
2018-02-01T07:02:26.548Z,52.07
2018-02-01T07:04:54.120Z,64.50
2018-02-01T07:07:21.687Z,57.30
2018-02-01T07:09:49.526Z,61.97
2018-02-01T07:12:17.109Z,43.83
2018-02-01T07:14:44.680Z,49.83
2018-02-01T07:17:12.283Z,33.00
2018-02-01T07:19:39.848Z,53.13
2018-02-01T07:22:07.684Z,27.93
2018-02-01T07:24:35.523Z,29.73
2018-02-01T07:27:03.103Z,24.23
2018-02-01T07:29:30.821Z,27.40
2018-02-01T07:31:58.450Z,30.03
2018-02-01T07:34:26.023Z,37.43
2018-02-01T07:36:53.597Z,33.30
2018-02-01T07:39:21.191Z,45.07
2018-02-01T07:41:48.776Z,43.50
2018-02-01T07:44:16.398Z,31.90
2018-02-01T07:46:44.056Z,32.97
2018-02-01T07:49:11.790Z,32.73
2018-02-01T07:51:39.575Z,60.07
2018-02-01T07:54:07.249Z,30.60
2018-02-01T07:56:34.825Z,46.93
2018-02-01T07:59:02.424Z,28.37
2018-02-01T08:01:30.053Z,23.80
2018-02-01T08:03:57.707Z,50.03
2018-02-01T08:06:25.307Z,35.70
2018-02-01T08:08:53.025Z,23.13
2018-02-01T08:13:53.461Z,29.53
2018-02-01T08:16:21.046Z,43.43
2018-02-01T08:18:48.618Z,37.87
2018-02-01T08:21:16.222Z,35.47
2018-02-01T08:23:43.794Z,59.90
2018-02-01T08:26:11.371Z,41.97
2018-02-01T08:28:38.983Z,58.57
2018-02-01T08:31:06.674Z,68.20
2018-02-01T08:33:34.251Z,28.83
2018-02-01T08:36:01.866Z,40.83
2018-02-01T08:38:29.475Z,34.57
2018-02-01T08:40:57.057Z,31.70
2018-02-01T08:43:24.699Z,33.83
2018-02-01T08:45:52.283Z,26.50
2018-02-01T08:48:19.865Z,26.80
2018-02-01T08:50:47.477Z,30.93
2018-02-01T08:53:15.027Z,40.37
2018-02-01T08:55:42.694Z,48.83
2018-02-01T08:58:10.886Z,33.40
2018-02-01T09:00:38.482Z,40.90
2018-02-01T09:03:06.052Z,41.37
2018-02-01T09:05:33.656Z,41.57
2018-02-01T09:08:01.400Z,22.93
2018-02-01T09:10:29.064Z,40.70
2018-02-01T09:12:56.724Z,44.37
2018-02-01T09:15:24.287Z,40.80
2018-02-01T09:17:51.873Z,35.37
2018-02-01T09:20:19.523Z,55.40
2018-02-01T09:22:47.184Z,29.03
2018-02-01T09:25:14.784Z,21.93
2018-02-01T09:27:42.470Z,31.30
2018-02-01T09:30:10.146Z,22.30
2018-02-01T09:32:37.711Z,35.83
2018-02-01T09:35:05.489Z,27.10
2018-02-01T09:37:33.056Z,20.97
2018-02-01T09:40:00.624Z,28.37
2018-02-01T09:42:28.238Z,31.23
2018-02-01T09:44:55.927Z,24.83
2018-02-01T09:47:23.488Z,16.43
2018-02-01T09:49:51.078Z,18.63
2018-02-01T09:52:18.926Z,11.23
2018-02-01T09:54:46.585Z,24.70
2018-02-01T09:57:14.434Z,23.40
2018-02-01T09:59:42.000Z,15.40
2018-02-01T10:02:09.772Z,12.43
2018-02-01T10:04:37.376Z,14.60
2018-02-01T10:07:05.093Z,12.13
2018-02-01T10:09:32.656Z,16.73
2018-02-01T10:12:00.420Z,17.03
2018-02-01T10:14:27.997Z,11.07
2018-02-01T10:16:55.562Z,7.37
2018-02-01T10:19:23.211Z,31.40
2018-02-01T10:21:50.858Z,43.27
2018-02-01T10:24:18.506Z,11.10
2018-02-01T10:26:46.111Z,19.33
2018-02-01T10:29:13.656Z,6.87
2018-02-01T10:31:41.207Z,17.67
2018-02-01T10:34:08.976Z,9.90
2018-02-01T10:36:36.514Z,12.77
2018-02-01T10:39:04.138Z,13.90
2018-02-01T10:41:31.720Z,9.83
2018-02-01T10:43:59.273Z,12.80
2018-02-01T10:46:26.838Z,16.00
2018-02-01T10:48:54.427Z,13.63
2018-02-01T10:51:21.962Z,15.60
2018-02-01T10:53:49.680Z,12.33
2018-02-01T10:56:17.331Z,13.20
2018-02-01T10:58:44.886Z,12.17
2018-02-01T11:01:12.484Z,18.50
2018-02-01T11:03:40.058Z,8.10
2018-02-01T11:06:07.608Z,12.53
2018-02-01T11:08:35.151Z,11.97
2018-02-01T11:11:02.728Z,12.80
2018-02-01T11:13:30.346Z,22.30
2018-02-01T11:15:57.922Z,13.90
2018-02-01T11:18:25.523Z,11.00
2018-02-01T11:20:53.095Z,15.90
2018-02-01T11:23:20.645Z,13.93
2018-02-01T11:25:48.266Z,10.30
2018-02-01T11:28:15.836Z,13.13
2018-02-01T11:30:43.572Z,14.27
2018-02-01T11:33:11.159Z,23.40
2018-02-01T11:35:38.702Z,7.07
2018-02-01T11:38:06.284Z,8.60
2018-02-01T11:40:33.889Z,10.40
2018-02-01T11:43:02.376Z,13.47
2018-02-01T11:45:29.921Z,11.00
2018-02-01T11:47:57.514Z,14.50
2018-02-01T11:50:25.063Z,10.07
2018-02-01T11:52:52.617Z,9.73
2018-02-01T11:55:20.201Z,17.80
2018-02-01T11:57:47.758Z,13.63
2018-02-01T12:00:15.299Z,7.63
2018-02-01T12:02:42.874Z,12.77
2018-02-01T12:05:10.433Z,12.13
2018-02-01T12:07:37.988Z,9.90
2018-02-01T12:10:05.555Z,8.67
2018-02-01T12:12:33.110Z,13.37
2018-02-01T12:15:00.695Z,8.80
2018-02-01T12:17:28.289Z,14.10
2018-02-01T12:19:55.856Z,8.10
2018-02-01T12:22:23.423Z,11.10
2018-02-01T12:24:51.033Z,10.40
2018-02-01T12:27:18.761Z,10.33
2018-02-01T12:29:46.368Z,17.20
2018-02-01T12:32:13.975Z,10.63
2018-02-01T12:34:41.542Z,18.00
2018-02-01T12:37:09.109Z,15.67
2018-02-01T12:39:36.691Z,11.40
2018-02-01T12:42:04.261Z,14.50
2018-02-01T12:44:32.007Z,10.10
2018-02-01T12:46:59.603Z,15.63
2018-02-01T12:49:27.156Z,16.60
2018-02-01T12:51:54.711Z,13.83
2018-02-01T12:54:22.283Z,10.57
2018-02-01T12:56:49.907Z,15.27
2018-02-01T12:59:17.480Z,12.83
2018-02-01T13:01:45.063Z,9.43
2018-02-01T13:04:12.599Z,8.37
2018-02-01T13:06:40.155Z,13.67
2018-02-01T13:09:07.765Z,12.23
2018-02-01T13:11:35.308Z,9.67
2018-02-01T13:14:02.855Z,20.73
2018-02-01T13:16:30.430Z,17.10
2018-02-01T13:18:57.989Z,16.70
2018-02-01T13:21:25.564Z,19.53
2018-02-01T13:23:53.176Z,15.80
2018-02-01T13:26:20.870Z,20.30
2018-02-01T13:28:48.440Z,11.97
2018-02-01T13:31:16.145Z,16.27
2018-02-01T13:33:43.720Z,16.63
2018-02-01T13:36:11.297Z,19.97
2018-02-01T13:38:38.924Z,20.03
2018-02-01T13:41:06.593Z,13.93
2018-02-01T13:43:34.172Z,14.00
2018-02-01T13:46:01.929Z,10.80
2018-02-01T13:48:29.787Z,14.67
2018-02-01T13:50:57.365Z,16.73
2018-02-01T13:53:24.972Z,26.07
2018-02-01T13:55:52.551Z,13.97
2018-02-01T13:58:20.143Z,13.60
2018-02-01T14:00:47.750Z,23.17
2018-02-01T14:03:15.342Z,21.40
2018-02-01T14:05:43.009Z,10.53
2018-02-01T14:08:10.669Z,21.80
2018-02-01T14:10:38.244Z,30.17
2018-02-01T14:13:05.811Z,16.53
2018-02-01T14:15:33.555Z,14.70
2018-02-01T14:18:01.513Z,16.60
2018-02-01T14:20:29.097Z,17.40
2018-02-01T14:22:56.711Z,21.60
2018-02-01T14:25:24.320Z,26.97
2018-02-01T14:27:51.894Z,31.03
2018-02-01T14:30:19.511Z,21.00
2018-02-01T14:32:47.287Z,27.63
2018-02-01T14:35:15.737Z,32.80
2018-02-01T14:37:43.344Z,24.07
2018-02-01T14:40:10.928Z,37.57
2018-02-01T14:42:38.505Z,43.70
2018-02-01T14:45:06.107Z,35.37
2018-02-01T14:47:33.893Z,19.13
2018-02-01T14:50:01.479Z,51.17
2018-02-01T14:52:29.080Z,57.87
2018-02-01T14:54:56.668Z,66.03
2018-02-01T14:57:24.333Z,37.07
2018-02-01T14:59:51.957Z,15.70
2018-02-01T15:02:19.660Z,38.93
2018-02-01T15:04:47.312Z,37.00
2018-02-01T15:07:14.985Z,59.90
2018-02-01T15:09:42.551Z,39.97
2018-02-01T15:12:10.130Z,43.20
2018-02-01T15:14:37.838Z,53.47
2018-02-01T15:17:05.413Z,49.80
2018-02-01T15:19:33.087Z,24.83
2018-02-01T15:22:00.925Z,76.47
2018-02-01T15:24:28.618Z,102.97
2018-02-01T15:26:56.223Z,123.43
2018-02-01T15:29:23.846Z,60.13
2018-02-01T15:31:51.597Z,118.23
2018-02-01T15:34:19.254Z,101.53
2018-02-01T15:36:46.881Z,81.97
2018-02-01T15:39:14.699Z,121.30
2018-02-01T15:41:42.464Z,114.30
2018-02-01T15:44:10.064Z,67.40
2018-02-01T15:46:37.831Z,111.33
2018-02-01T15:49:05.513Z,104.00
2018-02-01T15:51:33.155Z,95.77
2018-02-01T15:54:00.774Z,113.93
2018-02-01T15:56:28.427Z,114.73
2018-02-01T15:58:56.059Z,89.67
2018-02-01T16:01:23.727Z,95.77
2018-02-01T16:03:51.384Z,35.40
2018-02-01T16:06:19.022Z,46.43
2018-02-01T16:08:46.645Z,78.83
2018-02-01T16:11:14.257Z,117.80
2018-02-01T16:13:43.054Z,59.80
2018-02-01T16:16:11.130Z,131.90
2018-02-01T16:18:38.786Z,128.30
2018-02-01T16:21:06.396Z,141.20
2018-02-01T16:23:33.978Z,113.27
2018-02-01T16:26:01.743Z,95.83
2018-02-01T16:28:29.470Z,100.30
2018-02-01T16:30:57.550Z,99.20
2018-02-01T16:33:25.213Z,88.17
2018-02-01T16:35:52.812Z,136.87
2018-02-01T16:38:20.440Z,107.03
2018-02-01T16:40:48.012Z,147.83
2018-02-01T16:43:15.747Z,87.00
2018-02-01T16:45:43.385Z,73.00
2018-02-01T16:48:10.949Z,88.57
2018-02-01T16:50:38.511Z,120.80
2018-02-01T16:53:06.205Z,80.43
2018-02-01T16:55:33.768Z,81.43
2018-02-01T16:58:01.328Z,84.23
2018-02-01T17:00:29.055Z,80.03
2018-02-01T17:02:56.831Z,107.00
2018-02-01T17:05:24.495Z,66.37
2018-02-01T17:07:52.094Z,57.63
2018-02-01T17:10:19.654Z,60.60
2018-02-01T17:12:47.219Z,53.70
2018-02-01T17:15:14.818Z,84.53
2018-02-01T17:17:42.391Z,51.00
2018-02-01T17:20:09.979Z,57.60
2018-02-01T17:22:37.944Z,45.93
2018-02-01T17:25:05.509Z,85.93
2018-02-01T17:27:33.069Z,53.20
2018-02-01T17:30:00.671Z,85.33
2018-02-01T17:32:28.237Z,84.53
2018-02-01T17:34:55.832Z,28.20
2018-02-01T17:37:23.424Z,44.37
2018-02-01T17:39:51.170Z,42.70
2018-02-01T17:42:18.794Z,52.17
2018-02-01T17:44:46.413Z,54.00
2018-02-01T17:47:13.968Z,60.57
2018-02-01T17:49:41.523Z,47.40
2018-02-01T17:52:09.139Z,43.87
2018-02-01T17:54:36.710Z,90.50
2018-02-01T17:57:04.273Z,48.70
2018-02-01T17:59:31.859Z,91.73
2018-02-01T18:01:59.691Z,68.03
2018-02-01T18:04:27.238Z,75.93
2018-02-01T18:06:54.949Z,52.83
2018-02-01T18:09:22.492Z,66.57
2018-02-01T18:11:50.061Z,59.37
2018-02-01T18:14:17.777Z,47.43
2018-02-01T18:16:45.354Z,149.63
2018-02-01T18:19:12.949Z,93.40
2018-02-01T18:21:40.708Z,68.10
2018-02-01T18:24:08.254Z,53.33
2018-02-01T18:26:35.802Z,83.17
2018-02-01T18:29:06.908Z,79.30
2018-02-01T18:31:35.038Z,69.37
2018-02-01T18:34:02.630Z,71.93
2018-02-01T18:36:30.227Z,74.87
2018-02-01T18:38:57.997Z,80.80
2018-02-01T18:41:25.544Z,65.87
2018-02-01T18:43:53.159Z,68.97
2018-02-01T18:46:20.699Z,55.63
2018-02-01T18:48:48.360Z,54.50
2018-02-01T18:51:15.967Z,87.70
2018-02-01T18:53:43.691Z,55.60
2018-02-01T18:56:11.247Z,55.53
2018-02-01T18:58:38.971Z,63.23
2018-02-01T19:01:06.526Z,57.70
2018-02-01T19:03:34.101Z,68.97
2018-02-01T19:06:01.698Z,78.03
2018-02-01T19:08:29.265Z,63.63
2018-02-01T19:10:56.827Z,64.00
2018-02-01T19:13:24.595Z,86.30
2018-02-01T19:15:52.160Z,95.87
2018-02-01T19:18:19.898Z,73.10
2018-02-01T19:20:47.480Z,49.80
2018-02-01T19:23:15.226Z,40.17
2018-02-01T19:25:43.110Z,65.33
2018-02-01T19:28:10.717Z,61.87
2018-02-01T19:30:38.285Z,53.30
2018-02-01T19:33:05.852Z,55.53
2018-02-01T19:35:33.528Z,68.73
2018-02-01T19:38:01.103Z,62.23
2018-02-01T19:40:28.679Z,74.17
2018-02-01T19:42:56.287Z,59.40
2018-02-01T19:45:23.831Z,57.93
2018-02-01T19:47:51.430Z,53.33
2018-02-01T19:50:19.033Z,56.80
2018-02-01T19:52:46.600Z,56.17
2018-02-01T19:55:14.172Z,49.03
2018-02-01T19:57:41.759Z,50.37
2018-02-01T20:00:09.542Z,71.23
2018-02-01T20:02:37.114Z,67.57
2018-02-01T20:05:04.688Z,59.13
2018-02-01T20:07:32.237Z,58.03
2018-02-01T20:09:59.799Z,49.20
2018-02-01T20:12:27.468Z,51.23
2018-02-01T20:14:55.089Z,62.03
2018-02-01T20:17:22.678Z,51.67
2018-02-01T20:19:50.437Z,43.57
2018-02-01T20:22:18.093Z,45.67
2018-02-01T20:24:45.702Z,50.60
2018-02-01T20:27:13.280Z,39.67
2018-02-01T20:29:40.889Z,38.40
2018-02-01T20:32:08.458Z,44.93
2018-02-01T20:34:36.105Z,83.70
2018-02-01T20:37:03.662Z,56.63
2018-02-01T20:39:31.257Z,51.03
2018-02-01T20:41:59.685Z,39.33
2018-02-01T20:44:27.289Z,73.30
2018-02-01T20:46:54.850Z,43.87
2018-02-01T20:49:22.451Z,45.13
2018-02-01T20:51:50.009Z,46.10
2018-02-01T20:54:17.572Z,58.33
2018-02-01T20:56:45.155Z,66.83
2018-02-01T20:59:12.791Z,44.23
2018-02-01T21:01:40.485Z,48.63
2018-02-01T21:04:08.087Z,46.63
2018-02-01T21:06:35.644Z,52.57
2018-02-01T21:09:03.486Z,45.43
2018-02-01T21:11:31.073Z,54.23
2018-02-01T21:13:58.618Z,52.83
2018-02-01T21:16:26.160Z,44.23
2018-02-01T21:18:53.872Z,67.43
2018-02-01T21:21:21.444Z,55.67
2018-02-01T21:23:48.994Z,49.93
2018-02-01T21:26:16.707Z,62.33
2018-02-01T21:28:44.297Z,54.53
2018-02-01T21:31:11.934Z,53.13
2018-02-01T21:33:39.677Z,65.07
2018-02-01T21:36:07.232Z,66.80
2018-02-01T21:38:34.784Z,51.67
2018-02-01T21:41:02.364Z,47.33
2018-02-01T21:43:29.928Z,45.70
2018-02-01T21:45:57.480Z,46.37
2018-02-01T21:48:25.085Z,53.40
2018-02-01T21:50:52.650Z,44.50
2018-02-01T21:53:20.212Z,56.10
2018-02-01T21:55:47.834Z,75.33
2018-02-01T21:58:15.482Z,60.73
2018-02-01T22:00:43.070Z,60.23
2018-02-01T22:03:10.658Z,61.30
2018-02-01T22:05:38.229Z,62.80
2018-02-01T22:08:05.773Z,61.07
2018-02-01T22:10:33.348Z,50.23
2018-02-01T22:13:01.065Z,57.17
2018-02-01T22:15:28.621Z,65.97
2018-02-01T22:17:56.388Z,64.43
2018-02-01T22:20:23.949Z,56.07
2018-02-01T22:22:51.504Z,50.03
2018-02-01T22:25:19.114Z,48.80
2018-02-01T22:27:46.812Z,65.93
2018-02-01T22:30:14.369Z,46.90
2018-02-01T22:32:41.959Z,42.20
2018-02-01T22:35:09.511Z,54.63
2018-02-01T22:37:37.066Z,60.93
2018-02-01T22:40:04.719Z,48.17
2018-02-01T22:42:32.272Z,49.00
2018-02-01T22:44:59.889Z,45.00
2018-02-01T22:47:27.497Z,49.00
2018-02-01T22:49:55.055Z,54.33
2018-02-01T22:52:22.615Z,57.80
2018-02-01T22:54:50.294Z,58.07
2018-02-01T22:57:17.958Z,68.93
2018-02-01T22:59:45.604Z,65.00
2018-02-01T23:02:13.258Z,66.73
2018-02-01T23:04:40.801Z,61.00
2018-02-01T23:07:08.356Z,55.23
2018-02-01T23:09:35.981Z,64.37
2018-02-01T23:12:03.555Z,52.43
2018-02-01T23:14:31.115Z,46.30
2018-02-01T23:16:58.701Z,53.63
2018-02-01T23:19:26.261Z,63.20
2018-02-01T23:21:53.816Z,57.27
2018-02-01T23:24:21.425Z,54.30
2018-02-01T23:26:48.980Z,57.97
2018-02-01T23:29:16.545Z,62.87
2018-02-01T23:31:44.203Z,56.63
2018-02-01T23:34:11.751Z,70.27
2018-02-01T23:36:39.303Z,80.97
2018-02-01T23:39:06.965Z,63.77
2018-02-01T23:41:34.529Z,88.03
2018-02-01T23:44:02.099Z,92.27
2018-02-01T23:46:29.672Z,79.20
2018-02-01T23:48:57.231Z,64.50
2018-02-01T23:51:24.813Z,58.53
2018-02-01T23:53:52.425Z,58.60
2018-02-01T23:56:19.967Z,58.40
2018-02-01T23:58:47.658Z,56.37
